Main page
METAR-TAF:

Airports :

Longyearbyen, Longyear,

Svalbard Airport

latitude: Norway, longitude: 78-15N, elevation: 015-28E m

Current weather observation

The report was made 30 minutes ago, at 04:50 UTC
Wind 12 kt from the West/Southwest
Temperature 4°C
Humidity 81%
Pressure 1016 hPa
Visibility 10 km or more
Few clouds at a height of 1000 ft
Scattered clouds at a height of 2500 ft
Broken clouds at a height of 3500 ft

METAR: ENSB 010450Z 24012KT 9999 FEW010 SCT025 BKN035 04/01 Q1016 RMK WIND 1400FT 22009KT

Time: 05:20 (05:20 UTC)

Forecast

Forecast valid from 01 at 00 UTC to 01 at 24 UTC
Wind 5 kt from the West
Visibility 10 km or more
Few clouds at a height of 1000 ft
Broken clouds at a height of 3000 ft
light rain
Temporary
from 01 at 00 UTC to 01 at 09 UTC
Wind 15 kt from the West/Southwest
Visibility: 4000 m
Few clouds at a height of 100 ft
Broken clouds at a height of 800 ft
rain, drizzle

TAF: ENSB 0100/0124 28005KT 9999 -RA FEW010 BKN030 TEMPO 0100/0109 24015KT 4000 RADZ FEW001 BKN008

METAR-TAF

Weather observations and forecasts of more than 4000 airports (METAR and TAF reports).

The available stations are represented by yellow and red dots on the map.

Hover mouse over dot to see the name of the station.

Then click to see weather observations and forecasts.

To change the map : click on the green buttons with a black cross to zoom in, on the green button with a dash to zoom out, or on the green arrows for adjacent maps.


METAR-TAF: